createdAt,value
2024-05-09T01:19:39.514Z,49.20
2024-05-09T01:38:38.071Z,43.36
2024-05-09T01:53:25.240Z,43.09
2024-05-09T02:08:29.287Z,38.81
2024-05-09T02:11:00.628Z,37.89
2024-05-09T02:24:44.506Z,35.76
2024-05-09T02:27:16.330Z,36.52
2024-05-09T02:29:48.161Z,34.82
2024-05-09T02:44:03.438Z,36.36
2024-05-09T02:46:36.898Z,36.29
2024-05-09T02:49:07.570Z,35.41
2024-05-09T02:51:37.875Z,36.13
2024-05-09T02:54:09.452Z,34.24
2024-05-09T02:56:40.443Z,33.94
2024-05-09T02:59:11.057Z,44.39
2024-05-09T03:01:41.356Z,34.05
2024-05-09T03:04:12.042Z,33.98
2024-05-09T03:06:45.631Z,34.22
2024-05-09T03:09:16.097Z,34.81
2024-05-09T03:11:47.581Z,34.81
2024-05-09T03:14:21.755Z,36.42
2024-05-09T03:16:52.551Z,35.31
2024-05-09T03:19:23.258Z,33.48
2024-05-09T03:21:53.947Z,33.03
2024-05-09T03:24:24.519Z,34.86
2024-05-09T03:26:54.874Z,32.89
2024-05-09T03:29:25.626Z,34.75
2024-05-09T03:31:57.166Z,32.95
2024-05-09T03:34:27.697Z,33.24
2024-05-09T03:36:58.400Z,33.16
2024-05-09T03:39:28.926Z,31.37
2024-05-09T03:41:59.525Z,36.00
2024-05-09T03:44:30.122Z,33.15
2024-05-09T03:47:00.776Z,35.79
2024-05-09T03:49:31.396Z,33.85
2024-05-09T03:52:06.668Z,33.50
2024-05-09T03:54:46.685Z,32.92
2024-05-09T03:57:17.272Z,33.82
2024-05-09T03:59:47.921Z,35.61
2024-05-09T04:02:18.556Z,33.65
2024-05-09T04:04:49.411Z,37.26
2024-05-09T04:07:19.960Z,36.23
2024-05-09T04:09:50.156Z,41.20
2024-05-09T04:12:21.390Z,33.83
2024-05-09T04:14:52.103Z,32.54
2024-05-09T04:17:22.440Z,35.25
2024-05-09T04:19:53.168Z,38.30
2024-05-09T04:22:23.763Z,32.16
2024-05-09T04:24:54.796Z,39.59
2024-05-09T04:27:25.404Z,33.07
2024-05-09T04:29:56.076Z,34.89
2024-05-09T04:32:26.722Z,33.90
2024-05-09T04:34:57.496Z,31.78
2024-05-09T04:37:28.560Z,31.31
2024-05-09T04:39:59.730Z,33.09
2024-05-09T04:42:30.580Z,33.48
2024-05-09T04:45:00.987Z,31.99
2024-05-09T04:47:32.628Z,32.54
2024-05-09T04:50:03.601Z,33.67
2024-05-09T04:52:33.978Z,34.80
2024-05-09T04:55:04.558Z,33.58
2024-05-09T04:57:35.007Z,34.08
2024-05-09T05:00:09.437Z,33.62
2024-05-09T05:02:45.236Z,35.10
2024-05-09T05:05:15.931Z,36.01
2024-05-09T05:07:46.701Z,34.64
2024-05-09T05:10:25.105Z,35.48
2024-05-09T05:13:19.312Z,36.77
2024-05-09T05:15:53.323Z,36.51
2024-05-09T05:18:25.702Z,37.85
2024-05-09T05:20:58.062Z,38.03
2024-05-09T05:23:28.678Z,41.07
2024-05-09T05:25:59.105Z,37.71
2024-05-09T05:28:29.697Z,38.47
2024-05-09T05:31:00.361Z,39.64
2024-05-09T05:33:31.854Z,36.60
2024-05-09T05:36:02.694Z,37.88
2024-05-09T05:38:33.322Z,36.84
2024-05-09T05:41:04.007Z,35.61
2024-05-09T05:43:34.637Z,39.35
2024-05-09T05:46:05.440Z,38.48
2024-05-09T05:48:36.196Z,37.92
2024-05-09T05:51:08.019Z,36.06
2024-05-09T05:53:38.766Z,33.52
2024-05-09T05:56:10.143Z,34.53
2024-05-09T05:58:40.912Z,34.35
2024-05-09T06:01:11.526Z,40.60
2024-05-09T06:03:42.477Z,34.54
2024-05-09T06:06:15.586Z,32.90
2024-05-09T06:08:47.513Z,35.32
2024-05-09T06:11:18.316Z,33.61
2024-05-09T06:13:49.116Z,37.19
2024-05-09T06:16:19.482Z,38.30
2024-05-09T06:18:50.127Z,34.72
2024-05-09T06:21:21.166Z,36.44
2024-05-09T06:23:52.071Z,35.89
2024-05-09T06:26:23.786Z,34.22
2024-05-09T06:28:54.175Z,36.37
2024-05-09T06:31:24.582Z,38.36
2024-05-09T06:33:55.110Z,34.21
2024-05-09T06:36:25.579Z,33.46
2024-05-09T06:38:55.959Z,34.76
2024-05-09T06:41:29.369Z,33.83
2024-05-09T06:44:02.484Z,40.69
2024-05-09T06:46:33.745Z,36.56
2024-05-09T06:49:09.698Z,35.08
2024-05-09T06:51:40.682Z,32.75
2024-05-09T06:54:11.849Z,40.99
2024-05-09T06:56:42.380Z,33.39
2024-05-09T06:59:13.112Z,35.81
2024-05-09T07:01:45.122Z,39.87
2024-05-09T07:04:16.298Z,34.97
2024-05-09T07:06:47.051Z,36.43
2024-05-09T07:09:17.699Z,35.79
2024-05-09T07:11:48.328Z,32.75
2024-05-09T07:14:20.050Z,39.37
2024-05-09T07:16:50.992Z,33.07
2024-05-09T07:19:21.804Z,33.47
2024-05-09T07:21:53.437Z,33.36
2024-05-09T07:24:23.929Z,34.98
2024-05-09T07:26:54.767Z,32.58
2024-05-09T07:29:25.574Z,34.39
2024-05-09T07:31:56.750Z,35.44
2024-05-09T07:34:27.464Z,42.69
2024-05-09T07:36:58.537Z,33.14
2024-05-09T07:39:29.659Z,33.95
2024-05-09T07:42:00.158Z,36.53
2024-05-09T07:44:32.148Z,36.81
2024-05-09T07:54:43.026Z,37.28
2024-05-09T07:57:13.865Z,35.43
2024-05-09T07:59:44.438Z,34.71
2024-05-09T08:02:14.933Z,41.43
2024-05-09T08:04:45.665Z,37.63
2024-05-09T08:07:16.229Z,35.28
2024-05-09T08:09:48.209Z,38.57
2024-05-09T08:12:18.716Z,37.46
2024-05-09T08:14:50.353Z,37.66
2024-05-09T08:17:20.892Z,38.77
2024-05-09T08:19:51.606Z,37.98
2024-05-09T08:22:22.219Z,36.44
2024-05-09T08:24:52.744Z,38.33
2024-05-09T08:27:23.170Z,36.00
2024-05-09T08:29:53.699Z,36.95
2024-05-09T08:32:25.025Z,39.08
2024-05-09T08:34:55.957Z,42.10
2024-05-09T08:37:30.966Z,36.20
2024-05-09T08:40:08.465Z,37.52
2024-05-09T08:42:46.613Z,36.47
2024-05-09T08:45:18.442Z,36.19
2024-05-09T08:47:51.915Z,42.29
2024-05-09T08:50:32.183Z,35.41
2024-05-09T08:53:09.545Z,38.41
2024-05-09T08:55:42.650Z,37.34
2024-05-09T08:58:23.569Z,37.85
2024-05-09T09:00:54.764Z,40.47
2024-05-09T09:03:29.913Z,37.53
2024-05-09T09:06:04.473Z,36.78
2024-05-09T09:08:35.240Z,38.99
2024-05-09T09:11:06.646Z,40.31
2024-05-09T09:13:37.245Z,37.84
2024-05-09T09:16:08.716Z,41.54
2024-05-09T09:18:39.652Z,40.34
2024-05-09T09:21:13.218Z,37.01
2024-05-09T09:23:43.755Z,38.38
2024-05-09T09:26:18.614Z,39.55
2024-05-09T09:28:49.838Z,39.61
2024-05-09T09:31:21.817Z,38.03
2024-05-09T09:33:54.118Z,40.71
2024-05-09T09:36:24.746Z,44.14
2024-05-09T09:38:57.415Z,42.18
2024-05-09T09:41:32.277Z,37.79
2024-05-09T09:44:05.049Z,40.42
2024-05-09T09:46:36.467Z,41.15
2024-05-09T09:49:08.547Z,41.19
2024-05-09T09:51:45.135Z,40.47
2024-05-09T09:54:16.500Z,45.93
2024-05-09T09:56:50.186Z,44.65
2024-05-09T09:59:20.934Z,43.20
2024-05-09T10:01:51.659Z,46.88
2024-05-09T10:04:22.570Z,43.20
2024-05-09T10:07:01.088Z,43.36
2024-05-09T10:09:32.102Z,41.50
2024-05-09T10:12:12.528Z,42.45
2024-05-09T10:14:52.555Z,43.84
2024-05-09T10:17:23.236Z,46.27
2024-05-09T10:20:11.858Z,42.05
2024-05-09T10:22:52.176Z,43.56
2024-05-09T10:25:23.044Z,42.25
2024-05-09T10:28:00.196Z,44.59
2024-05-09T10:30:35.918Z,43.75
2024-05-09T10:33:13.196Z,45.83
2024-05-09T10:35:53.890Z,49.06
2024-05-09T10:38:31.568Z,47.60
2024-05-09T10:41:03.180Z,48.45
2024-05-09T10:43:33.828Z,46.82
2024-05-09T10:46:04.403Z,49.27
2024-05-09T10:48:35.157Z,50.87
2024-05-09T10:51:06.044Z,51.49
2024-05-09T10:53:44.354Z,49.96
2024-05-09T10:56:17.986Z,51.16
2024-05-09T10:58:48.645Z,49.99
2024-05-09T11:01:19.346Z,49.41
2024-05-09T11:03:54.501Z,52.55
2024-05-09T11:06:25.644Z,51.82
2024-05-09T11:08:56.587Z,52.34
2024-05-09T11:11:28.256Z,54.44
2024-05-09T11:13:58.940Z,52.14
2024-05-09T11:16:29.521Z,52.46
2024-05-09T11:19:01.296Z,53.81
2024-05-09T11:21:31.984Z,54.20
2024-05-09T11:24:03.169Z,55.96
2024-05-09T11:26:37.016Z,54.78
2024-05-09T11:29:07.795Z,55.78
2024-05-09T11:31:50.320Z,56.84
2024-05-09T11:34:20.892Z,55.28
2024-05-09T11:36:51.558Z,57.25
2024-05-09T11:39:22.226Z,59.19
2024-05-09T11:41:52.905Z,58.98
2024-05-09T11:44:23.493Z,59.89
2024-05-09T11:46:54.138Z,57.98
2024-05-09T11:49:26.840Z,59.75
2024-05-09T11:51:58.203Z,58.91
2024-05-09T11:54:28.963Z,59.38
2024-05-09T11:56:59.615Z,59.63
2024-05-09T11:59:29.920Z,60.14
2024-05-09T12:02:00.453Z,59.94
2024-05-09T12:04:31.436Z,60.97
2024-05-09T12:07:03.596Z,64.62
2024-05-09T12:09:35.984Z,62.90
2024-05-09T12:12:08.773Z,64.49
2024-05-09T12:14:40.037Z,64.94
2024-05-09T12:17:10.586Z,65.58
2024-05-09T12:19:42.333Z,68.87
2024-05-09T12:22:12.867Z,70.35
2024-05-09T12:24:43.407Z,71.42
2024-05-09T12:27:14.211Z,75.30
2024-05-09T12:29:45.177Z,74.87
2024-05-09T12:32:15.883Z,76.99
2024-05-09T12:34:46.567Z,78.90
2024-05-09T12:37:17.427Z,82.73
2024-05-09T12:39:48.488Z,84.03
2024-05-09T12:42:26.745Z,84.21
2024-05-09T12:44:58.606Z,84.16
2024-05-09T12:47:29.283Z,87.51
2024-05-09T12:50:00.185Z,91.33
2024-05-09T12:52:30.744Z,91.80
2024-05-09T12:55:01.321Z,93.42
2024-05-09T12:57:33.382Z,92.81
2024-05-09T13:00:04.194Z,98.33
2024-05-09T13:02:35.651Z,100.00
2024-05-09T13:05:06.413Z,100.00
2024-05-09T13:07:37.074Z,100.00
2024-05-09T13:10:13.899Z,100.00
2024-05-09T13:12:49.101Z,100.00
2024-05-09T13:15:20.281Z,100.00
2024-05-09T13:17:51.103Z,100.00
2024-05-09T13:20:28.728Z,100.00
2024-05-09T13:23:07.516Z,100.00
2024-05-09T13:25:39.354Z,100.00
2024-05-09T13:28:10.288Z,100.00
2024-05-09T13:30:42.224Z,100.00
2024-05-09T13:33:14.473Z,100.00
2024-05-09T13:35:49.643Z,100.00
2024-05-09T13:38:22.590Z,100.00
2024-05-09T13:40:53.495Z,100.00
2024-05-09T13:43:25.047Z,100.00
2024-05-09T13:45:58.162Z,100.00
2024-05-09T13:48:30.187Z,100.00
2024-05-09T13:51:00.977Z,100.00
2024-05-09T13:53:34.395Z,100.00
2024-05-09T13:56:06.317Z,100.00
2024-05-09T13:58:38.300Z,100.00
2024-05-09T14:01:09.170Z,100.00
2024-05-09T14:03:39.968Z,100.00
2024-05-09T14:06:13.072Z,100.00
2024-05-09T14:08:44.230Z,100.00
2024-05-09T14:11:14.918Z,100.00
2024-05-09T14:13:46.395Z,100.00
2024-05-09T14:16:16.973Z,100.00
2024-05-09T14:18:47.940Z,100.00
2024-05-09T14:21:19.217Z,100.00
2024-05-09T14:23:49.847Z,100.00
2024-05-09T14:26:21.101Z,100.00
2024-05-09T14:28:51.698Z,100.00
2024-05-09T14:31:23.434Z,100.00
2024-05-09T14:33:55.612Z,100.00
2024-05-09T14:36:26.656Z,100.00
2024-05-09T14:38:57.919Z,100.00
2024-05-09T14:41:28.706Z,100.00
2024-05-09T14:43:59.219Z,100.00
2024-05-09T14:46:30.805Z,100.00
2024-05-09T14:49:03.664Z,100.00
2024-05-09T14:51:34.798Z,100.00
2024-05-09T14:54:06.388Z,100.00
2024-05-09T14:56:37.384Z,100.00
2024-05-09T14:59:09.647Z,100.00
2024-05-09T15:01:41.485Z,100.00
2024-05-09T15:04:14.065Z,100.00
2024-05-09T15:06:45.109Z,100.00
2024-05-09T15:09:15.948Z,100.00
2024-05-09T15:11:47.803Z,100.00
2024-05-09T15:14:18.333Z,100.00
2024-05-09T15:16:50.554Z,100.00
2024-05-09T15:19:21.679Z,100.00
2024-05-09T15:21:52.561Z,100.00
2024-05-09T15:24:24.463Z,100.00
2024-05-09T15:26:55.063Z,100.00
2024-05-09T15:29:27.945Z,100.00
2024-05-09T15:31:59.706Z,100.00
2024-05-09T15:34:31.720Z,100.00
2024-05-09T15:37:03.274Z,100.00
2024-05-09T15:39:39.624Z,100.00
2024-05-09T15:42:10.276Z,100.00
2024-05-09T15:44:41.935Z,100.00
2024-05-09T15:47:13.804Z,100.00
2024-05-09T15:49:44.548Z,100.00
2024-05-09T15:52:17.186Z,100.00
2024-05-09T15:54:48.449Z,100.00
2024-05-09T15:57:20.163Z,100.00
2024-05-09T15:59:50.923Z,100.00
2024-05-09T16:02:21.903Z,100.00
2024-05-09T16:04:53.390Z,100.00
2024-05-09T16:07:24.347Z,100.00
2024-05-09T16:09:55.358Z,100.00
2024-05-09T16:12:27.203Z,100.00
2024-05-09T16:14:57.498Z,100.00
2024-05-09T16:17:28.869Z,100.00
2024-05-09T16:20:00.459Z,100.00
2024-05-09T16:22:31.275Z,100.00
2024-05-09T16:25:02.528Z,100.00
2024-05-09T16:27:33.491Z,100.00
2024-05-09T16:30:09.310Z,100.00
2024-05-09T16:32:46.152Z,100.00
2024-05-09T16:35:17.737Z,100.00
2024-05-09T16:37:49.383Z,91.26
2024-05-09T16:40:29.301Z,77.52
2024-05-09T16:43:09.059Z,83.54
2024-05-09T16:45:41.859Z,97.34
2024-05-09T16:48:14.155Z,100.00
2024-05-09T16:50:45.330Z,100.00
2024-05-09T16:53:15.933Z,99.45
2024-05-09T16:55:46.586Z,83.54
2024-05-09T16:58:19.501Z,77.69
2024-05-09T17:00:50.220Z,71.26
2024-05-09T17:03:22.994Z,70.76
2024-05-09T17:05:53.732Z,72.08
2024-05-09T17:08:24.585Z,70.62
2024-05-09T17:10:55.413Z,67.32
2024-05-09T17:13:29.742Z,68.37
2024-05-09T17:16:00.499Z,67.79
2024-05-09T17:18:31.182Z,66.58
2024-05-09T17:21:01.865Z,66.77
2024-05-09T17:23:35.044Z,67.42
2024-05-09T17:26:06.209Z,68.59
2024-05-09T17:28:37.965Z,69.34
2024-05-09T17:31:09.775Z,68.23
2024-05-09T17:33:40.658Z,67.63
2024-05-09T17:36:13.104Z,68.26
2024-05-09T17:38:43.964Z,66.90
2024-05-09T17:41:14.534Z,62.27
2024-05-09T17:43:45.292Z,62.26
2024-05-09T17:46:16.082Z,61.97
2024-05-09T17:48:46.913Z,60.07
2024-05-09T17:51:17.614Z,57.63
2024-05-09T17:53:49.558Z,58.92
2024-05-09T17:56:20.342Z,58.17
2024-05-09T17:58:51.009Z,57.26
2024-05-09T18:01:21.440Z,56.79
2024-05-09T18:03:52.137Z,57.51
2024-05-09T18:06:22.565Z,55.06
2024-05-09T18:08:53.139Z,58.29
2024-05-09T18:11:23.745Z,57.01
2024-05-09T18:13:55.966Z,54.91
2024-05-09T18:16:26.943Z,56.06
2024-05-09T18:18:57.895Z,55.06
2024-05-09T18:21:29.172Z,54.59
2024-05-09T18:24:01.072Z,52.55
2024-05-09T18:26:31.519Z,51.46
2024-05-09T18:29:02.253Z,57.36
2024-05-09T18:31:32.585Z,55.31
2024-05-09T18:34:03.425Z,54.84
2024-05-09T18:36:33.821Z,56.09
2024-05-09T18:39:04.914Z,55.15
2024-05-09T18:41:35.334Z,55.66
2024-05-09T18:44:06.426Z,53.54
2024-05-09T18:46:36.994Z,56.20
2024-05-09T18:49:07.891Z,54.66
2024-05-09T18:51:38.281Z,54.36
2024-05-09T18:54:08.763Z,54.80
2024-05-09T18:56:39.990Z,55.50
2024-05-09T18:59:10.327Z,56.73
2024-05-09T19:01:43.804Z,55.54
2024-05-09T19:04:14.890Z,60.07
2024-05-09T19:06:45.680Z,65.24
2024-05-09T19:09:16.332Z,68.47
2024-05-09T19:11:47.078Z,62.67
